sensor_id;sensor_type;location;lat;lon;timestamp;temperature;humidity
39219;DHT22;24934;52.752;6.964;2022-09-17T00:00:37;9.30;99.90
39219;DHT22;24934;52.752;6.964;2022-09-17T00:03:03;9.30;99.90
39219;DHT22;24934;52.752;6.964;2022-09-17T00:05:29;9.30;99.90
39219;DHT22;24934;52.752;6.964;2022-09-17T00:07:55;9.20;99.90
39219;DHT22;24934;52.752;6.964;2022-09-17T00:10:20;9.20;99.90
39219;DHT22;24934;52.752;6.964;2022-09-17T00:12:48;9.10;99.90
39219;DHT22;24934;52.752;6.964;2022-09-17T00:15:14;9.10;99.90
39219;DHT22;24934;52.752;6.964;2022-09-17T00:17:40;9.10;99.90
39219;DHT22;24934;52.752;6.964;2022-09-17T00:20:09;9.00;99.90
39219;DHT22;24934;52.752;6.964;2022-09-17T00:22:36;9.00;99.90
39219;DHT22;24934;52.752;6.964;2022-09-17T00:25:03;8.90;99.90
39219;DHT22;24934;52.752;6.964;2022-09-17T00:27:29;8.80;99.90
39219;DHT22;24934;52.752;6.964;2022-09-17T00:29:54;8.80;99.90
39219;DHT22;24934;52.752;6.964;2022-09-17T00:32:20;8.70;99.90
39219;DHT22;24934;52.752;6.964;2022-09-17T00:34:45;8.70;99.90
39219;DHT22;24934;52.752;6.964;2022-09-17T00:37:13;8.60;99.90
39219;DHT22;24934;52.752;6.964;2022-09-17T00:39:39;8.60;99.90
39219;DHT22;24934;52.752;6.964;2022-09-17T00:42:04;8.60;99.90
39219;DHT22;24934;52.752;6.964;2022-09-17T00:47:34;8.50;99.90
39219;DHT22;24934;52.752;6.964;2022-09-17T00:50:22;8.50;99.90
39219;DHT22;24934;52.752;6.964;2022-09-17T00:52:55;8.50;99.90
39219;DHT22;24934;52.752;6.964;2022-09-17T00:55:33;8.50;99.90
39219;DHT22;24934;52.752;6.964;2022-09-17T00:58:02;8.40;99.90
39219;DHT22;24934;52.752;6.964;2022-09-17T01:00:31;8.40;99.90
39219;DHT22;24934;52.752;6.964;2022-09-17T01:02:57;8.40;99.90
39219;DHT22;24934;52.752;6.964;2022-09-17T01:05:39;8.40;99.90
39219;DHT22;24934;52.752;6.964;2022-09-17T01:10:53;8.30;99.90
39219;DHT22;24934;52.752;6.964;2022-09-17T01:13:50;8.20;99.90
39219;DHT22;24934;52.752;6.964;2022-09-17T01:25:15;8.10;99.90
39219;DHT22;24934;52.752;6.964;2022-09-17T01:34:11;8.00;99.90
39219;DHT22;24934;52.752;6.964;2022-09-17T01:36:47;8.00;99.90
39219;DHT22;24934;52.752;6.964;2022-09-17T01:41:55;8.00;99.90
39219;DHT22;24934;52.752;6.964;2022-09-17T01:47:28;8.10;99.90
39219;DHT22;24934;52.752;6.964;2022-09-17T01:50:01;8.10;99.90
39219;DHT22;24934;52.752;6.964;2022-09-17T01:52:31;8.10;99.90
39219;DHT22;24934;52.752;6.964;2022-09-17T01:55:04;8.20;99.90
39219;DHT22;24934;52.752;6.964;2022-09-17T02:00:08;8.20;99.90
39219;DHT22;24934;52.752;6.964;2022-09-17T02:02:49;8.20;99.90
39219;DHT22;24934;52.752;6.964;2022-09-17T02:08:19;8.20;99.90
39219;DHT22;24934;52.752;6.964;2022-09-17T02:10:56;8.10;99.90
39219;DHT22;24934;52.752;6.964;2022-09-17T02:13:44;8.10;99.90
39219;DHT22;24934;52.752;6.964;2022-09-17T02:16:15;8.10;99.90
39219;DHT22;24934;52.752;6.964;2022-09-17T02:19:10;8.10;99.90
39219;DHT22;24934;52.752;6.964;2022-09-17T02:21:45;8.00;99.90
39219;DHT22;24934;52.752;6.964;2022-09-17T02:27:05;7.90;99.90
39219;DHT22;24934;52.752;6.964;2022-09-17T02:29:35;7.90;99.90
39219;DHT22;24934;52.752;6.964;2022-09-17T02:32:02;7.90;99.90
39219;DHT22;24934;52.752;6.964;2022-09-17T02:34:28;7.80;99.90
39219;DHT22;24934;52.752;6.964;2022-09-17T02:36:54;7.80;99.90
39219;DHT22;24934;52.752;6.964;2022-09-17T02:39:20;7.90;99.90
39219;DHT22;24934;52.752;6.964;2022-09-17T02:58:39;7.90;99.90
39219;DHT22;24934;52.752;6.964;2022-09-17T03:01:17;8.00;99.90
39219;DHT22;24934;52.752;6.964;2022-09-17T03:03:45;7.90;99.90
39219;DHT22;24934;52.752;6.964;2022-09-17T03:06:15;7.90;99.90
39219;DHT22;24934;52.752;6.964;2022-09-17T03:08:41;8.00;99.90
39219;DHT22;24934;52.752;6.964;2022-09-17T03:11:09;8.00;99.90
39219;DHT22;24934;52.752;6.964;2022-09-17T03:13:35;8.00;99.90
39219;DHT22;24934;52.752;6.964;2022-09-17T03:16:02;8.00;99.90
39219;DHT22;24934;52.752;6.964;2022-09-17T03:18:28;8.00;99.90
39219;DHT22;24934;52.752;6.964;2022-09-17T03:20:53;8.00;99.90
39219;DHT22;24934;52.752;6.964;2022-09-17T03:23:19;8.10;99.90
39219;DHT22;24934;52.752;6.964;2022-09-17T03:25:45;8.10;99.90
39219;DHT22;24934;52.752;6.964;2022-09-17T03:28:11;8.20;99.90
39219;DHT22;24934;52.752;6.964;2022-09-17T03:30:37;8.20;99.90
39219;DHT22;24934;52.752;6.964;2022-09-17T03:33:03;8.20;99.90
39219;DHT22;24934;52.752;6.964;2022-09-17T03:35:28;8.20;99.90
39219;DHT22;24934;52.752;6.964;2022-09-17T03:37:54;8.20;99.90
39219;DHT22;24934;52.752;6.964;2022-09-17T03:40:19;8.20;99.90
39219;DHT22;24934;52.752;6.964;2022-09-17T03:42:45;8.10;99.90
39219;DHT22;24934;52.752;6.964;2022-09-17T03:45:11;8.10;99.90
39219;DHT22;24934;52.752;6.964;2022-09-17T03:47:37;8.10;99.90
39219;DHT22;24934;52.752;6.964;2022-09-17T03:50:04;8.20;99.90
39219;DHT22;24934;52.752;6.964;2022-09-17T03:52:29;8.20;99.90
39219;DHT22;24934;52.752;6.964;2022-09-17T03:54:55;8.20;99.90
39219;DHT22;24934;52.752;6.964;2022-09-17T03:57:21;8.10;99.90
39219;DHT22;24934;52.752;6.964;2022-09-17T03:59:47;8.20;99.90
39219;DHT22;24934;52.752;6.964;2022-09-17T04:02:13;8.20;99.90
39219;DHT22;24934;52.752;6.964;2022-09-17T04:04:38;8.10;99.90
39219;DHT22;24934;52.752;6.964;2022-09-17T04:07:04;8.10;99.90
39219;DHT22;24934;52.752;6.964;2022-09-17T04:09:30;8.20;99.90
39219;DHT22;24934;52.752;6.964;2022-09-17T04:11:56;8.20;99.90
39219;DHT22;24934;52.752;6.964;2022-09-17T04:14:21;8.20;99.90
39219;DHT22;24934;52.752;6.964;2022-09-17T04:16:47;8.20;99.90
39219;DHT22;24934;52.752;6.964;2022-09-17T04:19:13;8.10;99.90
39219;DHT22;24934;52.752;6.964;2022-09-17T04:21:38;8.20;99.90
39219;DHT22;24934;52.752;6.964;2022-09-17T04:24:04;8.20;99.90
39219;DHT22;24934;52.752;6.964;2022-09-17T04:26:30;8.30;99.90
39219;DHT22;24934;52.752;6.964;2022-09-17T04:28:55;8.40;99.90
39219;DHT22;24934;52.752;6.964;2022-09-17T04:31:21;8.50;99.90
39219;DHT22;24934;52.752;6.964;2022-09-17T04:33:49;8.60;99.90
39219;DHT22;24934;52.752;6.964;2022-09-17T04:36:15;8.60;99.90
39219;DHT22;24934;52.752;6.964;2022-09-17T04:38:41;8.60;99.90
39219;DHT22;24934;52.752;6.964;2022-09-17T04:41:06;8.60;99.90
39219;DHT22;24934;52.752;6.964;2022-09-17T04:43:33;8.50;99.90
39219;DHT22;24934;52.752;6.964;2022-09-17T04:45:58;8.50;99.90
39219;DHT22;24934;52.752;6.964;2022-09-17T04:48:24;8.40;99.90
39219;DHT22;24934;52.752;6.964;2022-09-17T04:50:50;8.40;99.90
39219;DHT22;24934;52.752;6.964;2022-09-17T04:53:15;8.30;99.90
39219;DHT22;24934;52.752;6.964;2022-09-17T04:55:41;8.20;99.90
39219;DHT22;24934;52.752;6.964;2022-09-17T04:58:07;8.20;99.90
39219;DHT22;24934;52.752;6.964;2022-09-17T05:00:33;8.20;99.90
39219;DHT22;24934;52.752;6.964;2022-09-17T05:02:59;8.10;99.90
39219;DHT22;24934;52.752;6.964;2022-09-17T05:05:25;8.10;99.90
39219;DHT22;24934;52.752;6.964;2022-09-17T05:07:51;8.00;99.90
39219;DHT22;24934;52.752;6.964;2022-09-17T05:10:18;8.00;99.90
39219;DHT22;24934;52.752;6.964;2022-09-17T05:12:49;8.00;99.90
39219;DHT22;24934;52.752;6.964;2022-09-17T05:15:15;8.00;99.90
39219;DHT22;24934;52.752;6.964;2022-09-17T05:17:41;8.00;99.90
39219;DHT22;24934;52.752;6.964;2022-09-17T05:20:10;8.00;99.90
39219;DHT22;24934;52.752;6.964;2022-09-17T05:22:41;8.00;99.90
39219;DHT22;24934;52.752;6.964;2022-09-17T05:25:06;8.00;99.90
39219;DHT22;24934;52.752;6.964;2022-09-17T05:27:32;8.00;99.90
39219;DHT22;24934;52.752;6.964;2022-09-17T05:29:57;8.10;99.90
39219;DHT22;24934;52.752;6.964;2022-09-17T05:32:23;8.00;99.90
39219;DHT22;24934;52.752;6.964;2022-09-17T05:34:49;8.00;99.90
39219;DHT22;24934;52.752;6.964;2022-09-17T05:37:14;8.10;99.90
39219;DHT22;24934;52.752;6.964;2022-09-17T05:39:40;8.10;99.90
39219;DHT22;24934;52.752;6.964;2022-09-17T05:42:05;8.10;99.90
39219;DHT22;24934;52.752;6.964;2022-09-17T05:44:31;8.20;99.90
39219;DHT22;24934;52.752;6.964;2022-09-17T05:46:56;8.20;99.90
39219;DHT22;24934;52.752;6.964;2022-09-17T05:49:23;8.20;99.90
39219;DHT22;24934;52.752;6.964;2022-09-17T05:51:50;8.20;99.90
39219;DHT22;24934;52.752;6.964;2022-09-17T05:54:16;8.30;99.90
39219;DHT22;24934;52.752;6.964;2022-09-17T05:56:41;8.30;99.90
39219;DHT22;24934;52.752;6.964;2022-09-17T05:59:07;8.40;99.90
39219;DHT22;24934;52.752;6.964;2022-09-17T06:01:33;8.50;99.90
39219;DHT22;24934;52.752;6.964;2022-09-17T06:03:58;8.60;99.90
39219;DHT22;24934;52.752;6.964;2022-09-17T06:06:31;8.70;99.90
39219;DHT22;24934;52.752;6.964;2022-09-17T06:09:02;9.00;99.90
39219;DHT22;24934;52.752;6.964;2022-09-17T06:11:28;9.60;99.90
39219;DHT22;24934;52.752;6.964;2022-09-17T06:13:54;10.30;99.90
39219;DHT22;24934;52.752;6.964;2022-09-17T06:16:21;11.00;99.90
39219;DHT22;24934;52.752;6.964;2022-09-17T06:18:46;11.80;99.90
39219;DHT22;24934;52.752;6.964;2022-09-17T06:21:14;12.30;99.90
39219;DHT22;24934;52.752;6.964;2022-09-17T06:23:40;12.60;99.90
39219;DHT22;24934;52.752;6.964;2022-09-17T06:26:07;13.20;99.90
39219;DHT22;24934;52.752;6.964;2022-09-17T06:28:33;13.40;99.90
39219;DHT22;24934;52.752;6.964;2022-09-17T06:31:03;13.50;99.90
39219;DHT22;24934;52.752;6.964;2022-09-17T06:33:30;13.60;99.90
39219;DHT22;24934;52.752;6.964;2022-09-17T06:35:57;14.00;99.90
39219;DHT22;24934;52.752;6.964;2022-09-17T06:38:28;13.60;99.90
39219;DHT22;24934;52.752;6.964;2022-09-17T06:40:54;13.00;99.90
39219;DHT22;24934;52.752;6.964;2022-09-17T06:43:21;12.20;99.90
39219;DHT22;24934;52.752;6.964;2022-09-17T06:45:53;11.70;99.90
39219;DHT22;24934;52.752;6.964;2022-09-17T06:48:20;11.20;99.90
39219;DHT22;24934;52.752;6.964;2022-09-17T06:50:46;10.90;99.90
39219;DHT22;24934;52.752;6.964;2022-09-17T06:53:12;11.10;99.90
39219;DHT22;24934;52.752;6.964;2022-09-17T06:55:41;11.10;99.90
39219;DHT22;24934;52.752;6.964;2022-09-17T06:58:08;11.10;99.90
39219;DHT22;24934;52.752;6.964;2022-09-17T07:00:33;11.00;99.90
39219;DHT22;24934;52.752;6.964;2022-09-17T07:03:00;10.80;99.90
39219;DHT22;24934;52.752;6.964;2022-09-17T07:05:28;10.70;99.90
39219;DHT22;24934;52.752;6.964;2022-09-17T07:07:54;10.60;99.90
39219;DHT22;24934;52.752;6.964;2022-09-17T07:10:20;10.50;99.90
39219;DHT22;24934;52.752;6.964;2022-09-17T07:12:47;10.30;99.90
39219;DHT22;24934;52.752;6.964;2022-09-17T07:15:13;10.10;99.90
39219;DHT22;24934;52.752;6.964;2022-09-17T07:17:40;10.00;99.90
39219;DHT22;24934;52.752;6.964;2022-09-17T07:20:08;10.10;99.90
39219;DHT22;24934;52.752;6.964;2022-09-17T07:22:34;10.90;99.90
39219;DHT22;24934;52.752;6.964;2022-09-17T07:25:00;12.00;99.90
39219;DHT22;24934;52.752;6.964;2022-09-17T07:27:29;13.40;99.90
39219;DHT22;24934;52.752;6.964;2022-09-17T07:29:55;14.60;99.90
39219;DHT22;24934;52.752;6.964;2022-09-17T07:32:21;15.80;99.90
39219;DHT22;24934;52.752;6.964;2022-09-17T07:34:47;16.40;99.90
39219;DHT22;24934;52.752;6.964;2022-09-17T07:37:14;16.80;99.90
39219;DHT22;24934;52.752;6.964;2022-09-17T07:39:43;16.00;99.90
39219;DHT22;24934;52.752;6.964;2022-09-17T07:42:09;15.40;99.90
39219;DHT22;24934;52.752;6.964;2022-09-17T07:44:35;14.40;99.90
39219;DHT22;24934;52.752;6.964;2022-09-17T07:47:00;13.50;99.90
39219;DHT22;24934;52.752;6.964;2022-09-17T07:49:26;12.90;99.90
39219;DHT22;24934;52.752;6.964;2022-09-17T07:51:52;13.10;99.90
39219;DHT22;24934;52.752;6.964;2022-09-17T07:54:21;13.90;99.90
39219;DHT22;24934;52.752;6.964;2022-09-17T07:56:47;14.80;99.90
39219;DHT22;24934;52.752;6.964;2022-09-17T07:59:12;16.10;99.90
39219;DHT22;24934;52.752;6.964;2022-09-17T08:01:38;15.70;99.90
39219;DHT22;24934;52.752;6.964;2022-09-17T08:04:04;15.50;99.90
39219;DHT22;24934;52.752;6.964;2022-09-17T08:06:30;15.20;99.90
39219;DHT22;24934;52.752;6.964;2022-09-17T08:08:57;14.70;99.90
39219;DHT22;24934;52.752;6.964;2022-09-17T08:11:25;13.90;99.90
39219;DHT22;24934;52.752;6.964;2022-09-17T08:13:53;13.50;99.90
39219;DHT22;24934;52.752;6.964;2022-09-17T08:16:19;14.30;99.90
39219;DHT22;24934;52.752;6.964;2022-09-17T08:18:46;15.30;99.90
39219;DHT22;24934;52.752;6.964;2022-09-17T08:21:15;16.40;99.90
39219;DHT22;24934;52.752;6.964;2022-09-17T08:23:42;17.20;99.90
39219;DHT22;24934;52.752;6.964;2022-09-17T08:26:13;17.60;99.90
39219;DHT22;24934;52.752;6.964;2022-09-17T08:28:39;18.00;99.90
39219;DHT22;24934;52.752;6.964;2022-09-17T08:31:07;18.40;99.90
39219;DHT22;24934;52.752;6.964;2022-09-17T08:33:38;18.40;99.90
39219;DHT22;24934;52.752;6.964;2022-09-17T08:36:05;18.30;99.90
39219;DHT22;24934;52.752;6.964;2022-09-17T08:38:32;18.10;99.90
39219;DHT22;24934;52.752;6.964;2022-09-17T08:46:24;17.70;99.90
39219;DHT22;24934;52.752;6.964;2022-09-17T08:49:06;17.90;99.90
39219;DHT22;24934;52.752;6.964;2022-09-17T09:00:33;18.80;99.90
39219;DHT22;24934;52.752;6.964;2022-09-17T09:05:51;15.30;99.90
39219;DHT22;24934;52.752;6.964;2022-09-17T09:08:36;13.90;99.90
39219;DHT22;24934;52.752;6.964;2022-09-17T09:11:05;13.10;99.90
39219;DHT22;24934;52.752;6.964;2022-09-17T09:13:41;12.70;99.90
39219;DHT22;24934;52.752;6.964;2022-09-17T09:16:15;12.40;99.90
39219;DHT22;24934;52.752;6.964;2022-09-17T09:18:42;12.50;99.90
39219;DHT22;24934;52.752;6.964;2022-09-17T09:23:54;14.50;99.90
39219;DHT22;24934;52.752;6.964;2022-09-17T09:26:46;15.20;99.90
39219;DHT22;24934;52.752;6.964;2022-09-17T09:32:27;16.10;99.90
39219;DHT22;24934;52.752;6.964;2022-09-17T09:35:11;16.50;99.90
39219;DHT22;24934;52.752;6.964;2022-09-17T09:37:45;16.40;99.90
39219;DHT22;24934;52.752;6.964;2022-09-17T09:40:34;16.80;99.90
39219;DHT22;24934;52.752;6.964;2022-09-17T09:43:07;16.90;99.90
39219;DHT22;24934;52.752;6.964;2022-09-17T09:45:48;16.70;99.90
39219;DHT22;24934;52.752;6.964;2022-09-17T09:48:37;16.00;99.90
39219;DHT22;24934;52.752;6.964;2022-09-17T09:51:24;15.50;99.90
39219;DHT22;24934;52.752;6.964;2022-09-17T09:56:50;15.10;99.90
39219;DHT22;24934;52.752;6.964;2022-09-17T09:59:21;15.10;99.90
39219;DHT22;24934;52.752;6.964;2022-09-17T10:01:47;15.70;99.90
39219;DHT22;24934;52.752;6.964;2022-09-17T10:04:24;16.10;99.90
39219;DHT22;24934;52.752;6.964;2022-09-17T10:06:52;16.70;99.90
39219;DHT22;24934;52.752;6.964;2022-09-17T10:09:20;16.60;99.90
39219;DHT22;24934;52.752;6.964;2022-09-17T10:12:02;16.00;99.90
39219;DHT22;24934;52.752;6.964;2022-09-17T10:14:33;15.10;99.90
39219;DHT22;24934;52.752;6.964;2022-09-17T10:17:25;14.30;99.90
39219;DHT22;24934;52.752;6.964;2022-09-17T10:22:45;13.00;99.90
39219;DHT22;24934;52.752;6.964;2022-09-17T10:25:30;13.00;99.90
39219;DHT22;24934;52.752;6.964;2022-09-17T10:27:59;12.90;99.90
39219;DHT22;24934;52.752;6.964;2022-09-17T10:30:25;12.70;99.90
39219;DHT22;24934;52.752;6.964;2022-09-17T10:35:36;12.00;99.90
39219;DHT22;24934;52.752;6.964;2022-09-17T10:38:02;11.80;99.90
39219;DHT22;24934;52.752;6.964;2022-09-17T10:40:31;11.60;99.90
39219;DHT22;24934;52.752;6.964;2022-09-17T10:45:43;11.40;99.90
39219;DHT22;24934;52.752;6.964;2022-09-17T10:48:16;11.80;99.90
39219;DHT22;24934;52.752;6.964;2022-09-17T10:50:52;12.80;99.90
39219;DHT22;24934;52.752;6.964;2022-09-17T10:53:23;13.90;99.90
39219;DHT22;24934;52.752;6.964;2022-09-17T11:04:12;16.90;99.90
39219;DHT22;24934;52.752;6.964;2022-09-17T11:07:26;17.00;99.90
39219;DHT22;24934;52.752;6.964;2022-09-17T11:10:05;17.20;99.90
39219;DHT22;24934;52.752;6.964;2022-09-17T11:12:44;17.60;99.90
39219;DHT22;24934;52.752;6.964;2022-09-17T11:26:39;16.40;99.90
39219;DHT22;24934;52.752;6.964;2022-09-17T11:32:42;14.40;99.90
39219;DHT22;24934;52.752;6.964;2022-09-17T11:35:37;13.50;99.90
39219;DHT22;24934;52.752;6.964;2022-09-17T11:38:15;13.00;99.90
39219;DHT22;24934;52.752;6.964;2022-09-17T11:40:46;12.90;99.90
39219;DHT22;24934;52.752;6.964;2022-09-17T11:43:40;12.80;99.90
39219;DHT22;24934;52.752;6.964;2022-09-17T11:46:07;12.30;99.90
39219;DHT22;24934;52.752;6.964;2022-09-17T11:48:58;11.90;99.90
39219;DHT22;24934;52.752;6.964;2022-09-17T11:54:06;11.30;99.90
39219;DHT22;24934;52.752;6.964;2022-09-17T11:56:48;11.10;99.90
39219;DHT22;24934;52.752;6.964;2022-09-17T11:59:29;11.30;99.90
39219;DHT22;24934;52.752;6.964;2022-09-17T12:07:29;12.90;99.90
39219;DHT22;24934;52.752;6.964;2022-09-17T12:10:03;13.00;99.90
39219;DHT22;24934;52.752;6.964;2022-09-17T12:12:37;13.30;99.90
39219;DHT22;24934;52.752;6.964;2022-09-17T12:15:11;13.30;99.90
39219;DHT22;24934;52.752;6.964;2022-09-17T12:17:49;12.90;99.90
39219;DHT22;24934;52.752;6.964;2022-09-17T12:20:24;13.10;99.90
39219;DHT22;24934;52.752;6.964;2022-09-17T12:22:53;13.10;99.90
39219;DHT22;24934;52.752;6.964;2022-09-17T12:25:21;13.10;99.90
39219;DHT22;24934;52.752;6.964;2022-09-17T12:28:06;13.40;99.90
39219;DHT22;24934;52.752;6.964;2022-09-17T12:30:38;14.00;99.90
39219;DHT22;24934;52.752;6.964;2022-09-17T12:41:36;15.30;99.90
39219;DHT22;24934;52.752;6.964;2022-09-17T12:50:09;16.00;99.90
39219;DHT22;24934;52.752;6.964;2022-09-17T12:52:55;16.10;99.90
39219;DHT22;24934;52.752;6.964;2022-09-17T12:55:33;16.20;99.90
39219;DHT22;24934;52.752;6.964;2022-09-17T13:00:34;16.20;99.90
39219;DHT22;24934;52.752;6.964;2022-09-17T13:03:19;16.10;99.90
39219;DHT22;24934;52.752;6.964;2022-09-17T13:08:42;16.10;99.90
39219;DHT22;24934;52.752;6.964;2022-09-17T13:11:33;16.30;99.90
39219;DHT22;24934;52.752;6.964;2022-09-17T13:14:13;16.60;99.90
39219;DHT22;24934;52.752;6.964;2022-09-17T13:17:10;16.60;99.90
39219;DHT22;24934;52.752;6.964;2022-09-17T13:22:45;16.60;99.90
39219;DHT22;24934;52.752;6.964;2022-09-17T13:25:14;16.90;99.90
39219;DHT22;24934;52.752;6.964;2022-09-17T13:27:40;17.10;99.90
39219;DHT22;24934;52.752;6.964;2022-09-17T13:30:07;17.00;99.90
39219;DHT22;24934;52.752;6.964;2022-09-17T13:37:42;17.20;99.90
39219;DHT22;24934;52.752;6.964;2022-09-17T13:40:32;17.40;99.90
39219;DHT22;24934;52.752;6.964;2022-09-17T13:45:27;17.80;99.90
39219;DHT22;24934;52.752;6.964;2022-09-17T13:48:01;18.10;99.90
39219;DHT22;24934;52.752;6.964;2022-09-17T13:50:42;18.10;99.90
39219;DHT22;24934;52.752;6.964;2022-09-17T13:55:40;16.90;99.90
39219;DHT22;24934;52.752;6.964;2022-09-17T13:58:20;16.50;99.90
39219;DHT22;24934;52.752;6.964;2022-09-17T14:01:04;16.10;99.90
39219;DHT22;24934;52.752;6.964;2022-09-17T14:22:32;16.00;99.90
39219;DHT22;24934;52.752;6.964;2022-09-17T14:24:58;16.00;99.90
39219;DHT22;24934;52.752;6.964;2022-09-17T14:27:50;16.10;99.90
39219;DHT22;24934;52.752;6.964;2022-09-17T14:30:29;16.50;99.90
39219;DHT22;24934;52.752;6.964;2022-09-17T14:35:34;16.80;99.90
39219;DHT22;24934;52.752;6.964;2022-09-17T14:40:45;16.90;99.90
39219;DHT22;24934;52.752;6.964;2022-09-17T14:46:02;16.60;99.90
39219;DHT22;24934;52.752;6.964;2022-09-17T14:48:33;16.60;99.90
39219;DHT22;24934;52.752;6.964;2022-09-17T14:53:44;16.70;99.90
39219;DHT22;24934;52.752;6.964;2022-09-17T14:56:13;16.60;99.90
39219;DHT22;24934;52.752;6.964;2022-09-17T14:58:47;16.70;99.90
39219;DHT22;24934;52.752;6.964;2022-09-17T15:01:26;16.20;99.90
39219;DHT22;24934;52.752;6.964;2022-09-17T15:06:40;15.80;99.90
39219;DHT22;24934;52.752;6.964;2022-09-17T15:09:17;15.50;99.90
39219;DHT22;24934;52.752;6.964;2022-09-17T15:11:44;15.20;99.90
39219;DHT22;24934;52.752;6.964;2022-09-17T15:14:26;14.80;99.90
39219;DHT22;24934;52.752;6.964;2022-09-17T15:16:54;14.60;99.90
39219;DHT22;24934;52.752;6.964;2022-09-17T15:19:36;14.00;99.90
39219;DHT22;24934;52.752;6.964;2022-09-17T15:22:09;13.60;99.90
39219;DHT22;24934;52.752;6.964;2022-09-17T15:24:44;13.30;99.90
39219;DHT22;24934;52.752;6.964;2022-09-17T15:29:50;13.10;99.90
39219;DHT22;24934;52.752;6.964;2022-09-17T15:32:17;13.10;99.90
39219;DHT22;24934;52.752;6.964;2022-09-17T15:34:42;13.10;99.90
39219;DHT22;24934;52.752;6.964;2022-09-17T15:37:19;13.30;99.90
39219;DHT22;24934;52.752;6.964;2022-09-17T15:39:48;13.50;99.90
39219;DHT22;24934;52.752;6.964;2022-09-17T15:42:26;13.50;99.90
39219;DHT22;24934;52.752;6.964;2022-09-17T15:44:57;13.70;99.90
39219;DHT22;24934;52.752;6.964;2022-09-17T15:48:00;14.00;99.90
39219;DHT22;24934;52.752;6.964;2022-09-17T15:50:27;14.00;99.90
39219;DHT22;24934;52.752;6.964;2022-09-17T15:55:44;13.80;99.90
39219;DHT22;24934;52.752;6.964;2022-09-17T15:58:22;13.80;99.90
39219;DHT22;24934;52.752;6.964;2022-09-17T16:08:50;13.30;99.90
39219;DHT22;24934;52.752;6.964;2022-09-17T16:11:21;13.00;99.90
39219;DHT22;24934;52.752;6.964;2022-09-17T16:13:51;12.90;99.90
39219;DHT22;24934;52.752;6.964;2022-09-17T16:16:20;13.00;99.90
39219;DHT22;24934;52.752;6.964;2022-09-17T16:18:47;13.10;99.90
39219;DHT22;24934;52.752;6.964;2022-09-17T16:21:13;13.30;99.90
39219;DHT22;24934;52.752;6.964;2022-09-17T16:23:39;13.40;99.90
39219;DHT22;24934;52.752;6.964;2022-09-17T16:26:08;13.50;99.90
39219;DHT22;24934;52.752;6.964;2022-09-17T16:28:35;13.40;99.90
39219;DHT22;24934;52.752;6.964;2022-09-17T16:31:00;13.30;99.90
39219;DHT22;24934;52.752;6.964;2022-09-17T16:33:26;13.00;99.90
39219;DHT22;24934;52.752;6.964;2022-09-17T16:35:56;12.80;99.90
39219;DHT22;24934;52.752;6.964;2022-09-17T16:38:22;12.60;99.90
39219;DHT22;24934;52.752;6.964;2022-09-17T16:40:47;12.50;99.90
39219;DHT22;24934;52.752;6.964;2022-09-17T16:43:13;12.40;99.90
39219;DHT22;24934;52.752;6.964;2022-09-17T16:45:39;12.40;99.90
39219;DHT22;24934;52.752;6.964;2022-09-17T16:48:05;12.40;99.90
39219;DHT22;24934;52.752;6.964;2022-09-17T16:50:31;12.40;99.90
39219;DHT22;24934;52.752;6.964;2022-09-17T16:52:57;12.30;99.90
39219;DHT22;24934;52.752;6.964;2022-09-17T16:55:22;12.20;99.90
39219;DHT22;24934;52.752;6.964;2022-09-17T16:57:48;12.00;99.90
39219;DHT22;24934;52.752;6.964;2022-09-17T17:00:16;11.90;99.90
39219;DHT22;24934;52.752;6.964;2022-09-17T17:02:49;11.80;99.90
39219;DHT22;24934;52.752;6.964;2022-09-17T17:05:15;11.70;99.90
39219;DHT22;24934;52.752;6.964;2022-09-17T17:07:41;11.50;99.90
39219;DHT22;24934;52.752;6.964;2022-09-17T17:10:07;11.50;99.90
39219;DHT22;24934;52.752;6.964;2022-09-17T17:12:35;11.40;99.90
39219;DHT22;24934;52.752;6.964;2022-09-17T17:15:02;11.40;99.90
39219;DHT22;24934;52.752;6.964;2022-09-17T17:17:30;11.40;99.90
39219;DHT22;24934;52.752;6.964;2022-09-17T17:19:57;11.40;99.90
39219;DHT22;24934;52.752;6.964;2022-09-17T17:22:23;11.30;99.90
39219;DHT22;24934;52.752;6.964;2022-09-17T17:24:49;11.30;99.90
39219;DHT22;24934;52.752;6.964;2022-09-17T17:27:14;11.30;99.90
39219;DHT22;24934;52.752;6.964;2022-09-17T17:29:40;11.30;99.90
39219;DHT22;24934;52.752;6.964;2022-09-17T17:32:06;11.30;99.90
39219;DHT22;24934;52.752;6.964;2022-09-17T17:34:33;11.20;99.90
39219;DHT22;24934;52.752;6.964;2022-09-17T17:36:59;11.20;99.90
39219;DHT22;24934;52.752;6.964;2022-09-17T17:39:24;11.20;99.90
39219;DHT22;24934;52.752;6.964;2022-09-17T17:41:50;11.10;99.90
39219;DHT22;24934;52.752;6.964;2022-09-17T17:44:18;11.10;99.90
39219;DHT22;24934;52.752;6.964;2022-09-17T17:46:44;11.10;99.90
39219;DHT22;24934;52.752;6.964;2022-09-17T17:49:10;11.00;99.90
39219;DHT22;24934;52.752;6.964;2022-09-17T17:51:35;11.00;99.90
39219;DHT22;24934;52.752;6.964;2022-09-17T17:54:01;11.00;99.90
39219;DHT22;24934;52.752;6.964;2022-09-17T17:56:26;11.10;99.90
39219;DHT22;24934;52.752;6.964;2022-09-17T17:58:56;11.00;99.90
39219;DHT22;24934;52.752;6.964;2022-09-17T18:01:28;11.00;99.90
39219;DHT22;24934;52.752;6.964;2022-09-17T18:03:59;10.90;99.90
39219;DHT22;24934;52.752;6.964;2022-09-17T18:06:26;10.90;99.90
39219;DHT22;24934;52.752;6.964;2022-09-17T18:08:52;10.80;99.90
39219;DHT22;24934;52.752;6.964;2022-09-17T18:11:18;10.70;99.90
39219;DHT22;24934;52.752;6.964;2022-09-17T18:13:44;10.70;99.90
39219;DHT22;24934;52.752;6.964;2022-09-17T18:16:14;10.80;99.90
39219;DHT22;24934;52.752;6.964;2022-09-17T18:18:41;10.80;99.90
39219;DHT22;24934;52.752;6.964;2022-09-17T18:21:09;10.80;99.90
39219;DHT22;24934;52.752;6.964;2022-09-17T18:23:37;10.80;99.90
39219;DHT22;24934;52.752;6.964;2022-09-17T18:26:05;10.70;99.90
39219;DHT22;24934;52.752;6.964;2022-09-17T18:28:33;10.70;99.90
39219;DHT22;24934;52.752;6.964;2022-09-17T18:31:29;10.60;99.90
39219;DHT22;24934;52.752;6.964;2022-09-17T18:34:02;10.60;99.90
39219;DHT22;24934;52.752;6.964;2022-09-17T18:36:29;10.60;99.90
39219;DHT22;24934;52.752;6.964;2022-09-17T18:38:57;10.60;99.90
39219;DHT22;24934;52.752;6.964;2022-09-17T18:41:33;10.60;99.90
39219;DHT22;24934;52.752;6.964;2022-09-17T18:44:00;10.50;99.90
39219;DHT22;24934;52.752;6.964;2022-09-17T18:46:29;10.50;99.90
39219;DHT22;24934;52.752;6.964;2022-09-17T18:48:56;10.40;99.90
39219;DHT22;24934;52.752;6.964;2022-09-17T18:51:23;10.30;99.90
39219;DHT22;24934;52.752;6.964;2022-09-17T18:53:49;10.30;99.90
39219;DHT22;24934;52.752;6.964;2022-09-17T18:56:21;10.30;99.90
39219;DHT22;24934;52.752;6.964;2022-09-17T18:58:49;10.30;99.90
39219;DHT22;24934;52.752;6.964;2022-09-17T19:01:15;10.30;99.90
39219;DHT22;24934;52.752;6.964;2022-09-17T19:03:41;10.30;99.90
39219;DHT22;24934;52.752;6.964;2022-09-17T19:06:09;10.30;99.90
39219;DHT22;24934;52.752;6.964;2022-09-17T19:08:36;10.20;99.90